sensor_id;sensor_type;location;lat;lon;timestamp;pressure;altitude;pressure_sealevel;temperature;humidity
72038;BME280;59900;50.788;12.904;2023-03-19T00:00:40;97317.13;;;10.30;58.68
72038;BME280;59900;50.788;12.904;2023-03-19T00:03:05;97320.94;;;10.34;58.77
72038;BME280;59900;50.788;12.904;2023-03-19T00:05:31;97312.88;;;10.29;58.82
72038;BME280;59900;50.788;12.904;2023-03-19T00:07:56;97310.25;;;10.29;58.71
72038;BME280;59900;50.788;12.904;2023-03-19T00:10:21;97312.06;;;10.28;58.48
72038;BME280;59900;50.788;12.904;2023-03-19T00:12:46;97307.41;;;10.24;58.65
72038;BME280;59900;50.788;12.904;2023-03-19T00:15:12;97315.47;;;10.22;58.68
72038;BME280;59900;50.788;12.904;2023-03-19T00:17:38;97305.78;;;10.23;58.73
72038;BME280;59900;50.788;12.904;2023-03-19T00:20:04;97300.53;;;10.23;58.72
72038;BME280;59900;50.788;12.904;2023-03-19T00:22:30;97304.16;;;10.22;58.94
72038;BME280;59900;50.788;12.904;2023-03-19T00:24:55;97306.56;;;10.17;58.39
72038;BME280;59900;50.788;12.904;2023-03-19T00:27:20;97312.16;;;10.07;58.68
72038;BME280;59900;50.788;12.904;2023-03-19T00:29:46;97311.56;;;10.05;58.51
72038;BME280;59900;50.788;12.904;2023-03-19T00:32:11;97313.63;;;10.09;58.80
72038;BME280;59900;50.788;12.904;2023-03-19T00:34:36;97312.22;;;10.13;58.79
72038;BME280;59900;50.788;12.904;2023-03-19T00:37:01;97309.41;;;10.15;59.02
72038;BME280;59900;50.788;12.904;2023-03-19T00:39:27;97309.41;;;10.15;59.13
72038;BME280;59900;50.788;12.904;2023-03-19T00:41:52;97310.41;;;10.14;59.15
72038;BME280;59900;50.788;12.904;2023-03-19T00:44:18;97303.53;;;10.13;59.14
72038;BME280;59900;50.788;12.904;2023-03-19T00:46:44;97306.53;;;10.10;59.17
72038;BME280;59900;50.788;12.904;2023-03-19T00:49:09;97310.16;;;10.02;58.40
72038;BME280;59900;50.788;12.904;2023-03-19T00:51:35;97305.50;;;9.98;58.22
72038;BME280;59900;50.788;12.904;2023-03-19T00:54:00;97307.72;;;10.07;58.03
72038;BME280;59900;50.788;12.904;2023-03-19T00:56:25;97305.34;;;10.12;57.72
72038;BME280;59900;50.788;12.904;2023-03-19T00:58:50;97300.13;;;10.19;57.85
72038;BME280;59900;50.788;12.904;2023-03-19T01:01:17;97299.72;;;10.22;57.39
72038;BME280;59900;50.788;12.904;2023-03-19T01:03:43;97306.78;;;10.22;57.74
72038;BME280;59900;50.788;12.904;2023-03-19T01:06:09;97299.03;;;10.07;58.22
72038;BME280;59900;50.788;12.904;2023-03-19T01:08:35;97297.22;;;10.07;58.30
72038;BME280;59900;50.788;12.904;2023-03-19T01:11:05;97289.19;;;10.09;58.30
72038;BME280;59900;50.788;12.904;2023-03-19T01:13:31;97288.34;;;10.08;58.76
72038;BME280;59900;50.788;12.904;2023-03-19T01:15:56;97296.59;;;9.99;58.67
72038;BME280;59900;50.788;12.904;2023-03-19T01:18:21;97297.22;;;9.94;59.06
72038;BME280;59900;50.788;12.904;2023-03-19T01:20:47;97277.41;;;9.92;59.70
72038;BME280;59900;50.788;12.904;2023-03-19T01:23:12;97281.63;;;9.80;59.08
72038;BME280;59900;50.788;12.904;2023-03-19T01:25:38;97283.97;;;9.62;59.09
72038;BME280;59900;50.788;12.904;2023-03-19T01:28:03;97295.03;;;9.57;59.09
72038;BME280;59900;50.788;12.904;2023-03-19T01:30:28;97279.94;;;9.59;58.93
72038;BME280;59900;50.788;12.904;2023-03-19T01:32:54;97280.91;;;9.58;58.77
72038;BME280;59900;50.788;12.904;2023-03-19T01:35:19;97283.72;;;9.50;58.79
72038;BME280;59900;50.788;12.904;2023-03-19T01:37:45;97281.66;;;9.45;59.14
72038;BME280;59900;50.788;12.904;2023-03-19T01:40:12;97282.31;;;9.47;59.22
72038;BME280;59900;50.788;12.904;2023-03-19T01:42:55;97286.91;;;9.39;59.45
72038;BME280;59900;50.788;12.904;2023-03-19T01:45:30;97290.50;;;9.38;59.53
72038;BME280;59900;50.788;12.904;2023-03-19T01:47:56;97281.63;;;9.32;59.79
72038;BME280;59900;50.788;12.904;2023-03-19T01:50:29;97284.41;;;9.31;59.85
72038;BME280;59900;50.788;12.904;2023-03-19T01:52:57;97288.84;;;9.24;59.92
72038;BME280;59900;50.788;12.904;2023-03-19T01:55:22;97281.78;;;9.24;60.29
72038;BME280;59900;50.788;12.904;2023-03-19T01:57:47;97268.28;;;9.27;60.05
72038;BME280;59900;50.788;12.904;2023-03-19T02:00:13;97270.31;;;9.32;59.91
72038;BME280;59900;50.788;12.904;2023-03-19T02:02:39;97266.91;;;9.38;59.59
72038;BME280;59900;50.788;12.904;2023-03-19T02:05:11;97263.91;;;9.41;59.53
72038;BME280;59900;50.788;12.904;2023-03-19T02:07:42;97261.72;;;9.44;59.32
72038;BME280;59900;50.788;12.904;2023-03-19T02:10:11;97256.63;;;9.43;59.49
72038;BME280;59900;50.788;12.904;2023-03-19T02:12:37;97257.66;;;9.48;59.59
72038;BME280;59900;50.788;12.904;2023-03-19T02:15:03;97265.97;;;9.52;59.47
72038;BME280;59900;50.788;12.904;2023-03-19T02:17:29;97259.50;;;9.54;59.45
72038;BME280;59900;50.788;12.904;2023-03-19T02:20:03;97259.91;;;9.51;59.43
72038;BME280;59900;50.788;12.904;2023-03-19T02:22:30;97247.34;;;9.40;59.60
72038;BME280;59900;50.788;12.904;2023-03-19T02:25:02;97257.66;;;9.42;59.82
72038;BME280;59900;50.788;12.904;2023-03-19T02:27:30;97256.63;;;9.36;59.89
72038;BME280;59900;50.788;12.904;2023-03-19T02:29:56;97257.44;;;9.43;59.77
72038;BME280;59900;50.788;12.904;2023-03-19T02:32:21;97261.50;;;9.46;59.77
72038;BME280;59900;50.788;12.904;2023-03-19T02:34:47;97258.47;;;9.49;59.82
72038;BME280;59900;50.788;12.904;2023-03-19T02:37:19;97264.75;;;9.48;59.97
72038;BME280;59900;50.788;12.904;2023-03-19T02:40:00;97269.19;;;9.54;60.03
72038;BME280;59900;50.788;12.904;2023-03-19T02:42:29;97263.56;;;9.57;60.09
72038;BME280;59900;50.788;12.904;2023-03-19T02:44:55;97264.38;;;9.57;60.05
72038;BME280;59900;50.788;12.904;2023-03-19T02:47:20;97262.13;;;9.54;59.89
72038;BME280;59900;50.788;12.904;2023-03-19T02:49:45;97264.38;;;9.57;60.15
72038;BME280;59900;50.788;12.904;2023-03-19T02:52:11;97258.94;;;9.59;60.20
72038;BME280;59900;50.788;12.904;2023-03-19T02:54:37;97254.91;;;9.56;60.33
72038;BME280;59900;50.788;12.904;2023-03-19T02:57:02;97258.94;;;9.59;60.52
72038;BME280;59900;50.788;12.904;2023-03-19T02:59:28;97259.28;;;9.49;61.08
72038;BME280;59900;50.788;12.904;2023-03-19T03:01:53;97268.97;;;9.49;61.47
72038;BME280;59900;50.788;12.904;2023-03-19T03:04:18;97271.16;;;9.45;61.60
72038;BME280;59900;50.788;12.904;2023-03-19T03:06:44;97270.56;;;9.43;61.65
72038;BME280;59900;50.788;12.904;2023-03-19T03:09:10;97263.09;;;9.40;61.43
72038;BME280;59900;50.788;12.904;2023-03-19T03:11:36;97262.69;;;9.43;61.79
72038;BME280;59900;50.788;12.904;2023-03-19T03:14:02;97262.91;;;9.42;61.64
72038;BME280;59900;50.788;12.904;2023-03-19T03:16:27;97259.47;;;9.41;62.54
72038;BME280;59900;50.788;12.904;2023-03-19T03:18:52;97262.13;;;9.48;62.64
72038;BME280;59900;50.788;12.904;2023-03-19T03:21:18;97256.03;;;9.41;62.18
72038;BME280;59900;50.788;12.904;2023-03-19T03:23:45;97249.94;;;9.34;62.40
72038;BME280;59900;50.788;12.904;2023-03-19T03:26:11;97256.81;;;9.35;62.38
72038;BME280;59900;50.788;12.904;2023-03-19T03:28:36;97266.91;;;9.38;62.57
72038;BME280;59900;50.788;12.904;2023-03-19T03:31:02;97258.66;;;9.41;62.65
72038;BME280;59900;50.788;12.904;2023-03-19T03:33:28;97258.66;;;9.41;62.67
72038;BME280;59900;50.788;12.904;2023-03-19T03:35:53;97260.28;;;9.42;62.80
72038;BME280;59900;50.788;12.904;2023-03-19T03:38:18;97267.00;;;9.51;62.48
72038;BME280;59900;50.788;12.904;2023-03-19T03:40:43;97264.38;;;9.51;62.19
72038;BME280;59900;50.788;12.904;2023-03-19T03:43:09;97262.34;;;9.53;62.77
72038;BME280;59900;50.788;12.904;2023-03-19T03:45:34;97259.94;;;9.58;63.15
72038;BME280;59900;50.788;12.904;2023-03-19T03:48:00;97260.34;;;9.62;62.92
72038;BME280;59900;50.788;12.904;2023-03-19T03:50:25;97255.72;;;9.64;62.61
72038;BME280;59900;50.788;12.904;2023-03-19T03:52:50;97266.63;;;9.67;62.84
72038;BME280;59900;50.788;12.904;2023-03-19T03:55:16;97264.44;;;9.71;62.74
72038;BME280;59900;50.788;12.904;2023-03-19T03:57:41;97266.03;;;9.72;62.76
72038;BME280;59900;50.788;12.904;2023-03-19T04:00:07;97268.66;;;9.72;62.75
72038;BME280;59900;50.788;12.904;2023-03-19T04:02:32;97269.47;;;9.72;62.96
72038;BME280;59900;50.788;12.904;2023-03-19T04:04:57;97270.03;;;9.61;63.00
72038;BME280;59900;50.788;12.904;2023-03-19T04:07:23;97268.78;;;9.57;63.03
72038;BME280;59900;50.788;12.904;2023-03-19T04:09:48;97268.41;;;9.53;63.09
72038;BME280;59900;50.788;12.904;2023-03-19T04:12:15;97264.13;;;9.46;63.51
72038;BME280;59900;50.788;12.904;2023-03-19T04:14:40;97268.34;;;9.40;63.32
72038;BME280;59900;50.788;12.904;2023-03-19T04:17:06;97266.53;;;9.41;63.45
72038;BME280;59900;50.788;12.904;2023-03-19T04:19:31;97266.91;;;9.38;63.54
72038;BME280;59900;50.788;12.904;2023-03-19T04:21:57;97269.97;;;9.41;64.08
72038;BME280;59900;50.788;12.904;2023-03-19T04:24:23;97269.97;;;9.41;64.14
72038;BME280;59900;50.788;12.904;2023-03-19T04:26:49;97275.81;;;9.43;64.24
72038;BME280;59900;50.788;12.904;2023-03-19T04:29:15;97271.00;;;9.47;64.06
72038;BME280;59900;50.788;12.904;2023-03-19T04:31:41;97274.22;;;9.49;63.90
72038;BME280;59900;50.788;12.904;2023-03-19T04:34:06;97277.06;;;9.47;64.05
72038;BME280;59900;50.788;12.904;2023-03-19T04:36:32;97279.25;;;9.44;64.11
72038;BME280;59900;50.788;12.904;2023-03-19T04:38:57;97284.06;;;9.40;64.24
72038;BME280;59900;50.788;12.904;2023-03-19T04:41:22;97283.63;;;9.37;64.46
72038;BME280;59900;50.788;12.904;2023-03-19T04:43:48;97286.66;;;9.34;64.56
72038;BME280;59900;50.788;12.904;2023-03-19T04:46:13;97276.53;;;9.31;64.36
72038;BME280;59900;50.788;12.904;2023-03-19T04:48:38;97284.56;;;9.23;64.63
72038;BME280;59900;50.788;12.904;2023-03-19T04:51:04;97281.97;;;9.23;64.85
72038;BME280;59900;50.788;12.904;2023-03-19T04:53:32;97281.91;;;9.16;65.01
72038;BME280;59900;50.788;12.904;2023-03-19T04:55:58;97280.09;;;9.17;65.02
72038;BME280;59900;50.788;12.904;2023-03-19T04:58:23;97282.94;;;9.15;65.02
72038;BME280;59900;50.788;12.904;2023-03-19T05:00:48;97290.16;;;9.13;65.26
72038;BME280;59900;50.788;12.904;2023-03-19T05:03:14;97283.06;;;9.07;65.83
72038;BME280;59900;50.788;12.904;2023-03-19T05:05:40;97278.25;;;9.04;66.01
72038;BME280;59900;50.788;12.904;2023-03-19T05:08:05;97282.28;;;9.07;66.06
72038;BME280;59900;50.788;12.904;2023-03-19T05:10:32;97280.03;;;9.04;66.21
72038;BME280;59900;50.788;12.904;2023-03-19T05:12:57;97274.16;;;9.01;66.12
72038;BME280;59900;50.788;12.904;2023-03-19T05:15:23;97274.38;;;9.00;65.92
72038;BME280;59900;50.788;12.904;2023-03-19T05:17:48;97279.38;;;8.95;66.36
72038;BME280;59900;50.788;12.904;2023-03-19T05:20:13;97282.00;;;8.95;66.26
72038;BME280;59900;50.788;12.904;2023-03-19T05:22:39;97289.22;;;8.93;66.53
72038;BME280;59900;50.788;12.904;2023-03-19T05:25:05;97287.44;;;8.93;66.46
72038;BME280;59900;50.788;12.904;2023-03-19T05:27:31;97289.06;;;8.94;66.42
72038;BME280;59900;50.788;12.904;2023-03-19T05:29:56;97289.28;;;8.99;66.51
72038;BME280;59900;50.788;12.904;2023-03-19T05:32:21;97294.72;;;8.98;66.55
72038;BME280;59900;50.788;12.904;2023-03-19T05:34:46;97294.72;;;8.98;66.47
72038;BME280;59900;50.788;12.904;2023-03-19T05:37:12;97294.53;;;8.99;66.51
72038;BME280;59900;50.788;12.904;2023-03-19T05:39:37;97300.75;;;8.98;66.45
72038;BME280;59900;50.788;12.904;2023-03-19T05:42:02;97295.91;;;8.95;66.63
72038;BME280;59900;50.788;12.904;2023-03-19T05:44:28;97297.53;;;8.96;66.49
72038;BME280;59900;50.788;12.904;2023-03-19T05:46:53;97301.13;;;8.95;66.49
72038;BME280;59900;50.788;12.904;2023-03-19T05:49:18;97300.38;;;9.01;66.46
72038;BME280;59900;50.788;12.904;2023-03-19T05:51:44;97307.47;;;9.08;66.29
72038;BME280;59900;50.788;12.904;2023-03-19T05:54:09;97306.47;;;9.09;66.21
72038;BME280;59900;50.788;12.904;2023-03-19T05:56:34;97307.09;;;9.11;66.13
72038;BME280;59900;50.788;12.904;2023-03-19T05:59:00;97311.94;;;9.14;66.23
72038;BME280;59900;50.788;12.904;2023-03-19T06:01:25;97305.88;;;9.13;66.40
72038;BME280;59900;50.788;12.904;2023-03-19T06:03:51;97312.09;;;9.06;66.41
72038;BME280;59900;50.788;12.904;2023-03-19T06:06:16;97309.28;;;9.07;66.26
72038;BME280;59900;50.788;12.904;2023-03-19T06:08:41;97316.16;;;9.08;66.28
72038;BME280;59900;50.788;12.904;2023-03-19T06:11:07;97317.34;;;9.06;66.47
72038;BME280;59900;50.788;12.904;2023-03-19T06:13:33;97323.78;;;9.03;66.61
72038;BME280;59900;50.788;12.904;2023-03-19T06:15:58;97321.72;;;8.98;66.61
72038;BME280;59900;50.788;12.904;2023-03-19T06:18:23;97322.38;;;9.00;66.93
72038;BME280;59900;50.788;12.904;2023-03-19T06:20:48;97333.84;;;8.99;67.23
72038;BME280;59900;50.788;12.904;2023-03-19T06:23:14;97326.78;;;9.00;66.91
72038;BME280;59900;50.788;12.904;2023-03-19T06:25:39;97333.22;;;8.97;67.05
72038;BME280;59900;50.788;12.904;2023-03-19T06:28:05;97331.81;;;9.01;66.85
72038;BME280;59900;50.788;12.904;2023-03-19T06:30:31;97329.47;;;9.07;66.96
72038;BME280;59900;50.788;12.904;2023-03-19T06:32:56;97333.13;;;9.12;66.94
72038;BME280;59900;50.788;12.904;2023-03-19T06:35:21;97334.34;;;9.16;66.73
72038;BME280;59900;50.788;12.904;2023-03-19T06:37:47;97337.59;;;9.18;66.66
72038;BME280;59900;50.788;12.904;2023-03-19T06:40:13;97336.63;;;9.26;66.74
72038;BME280;59900;50.788;12.904;2023-03-19T06:42:38;97330.00;;;9.30;66.81
72038;BME280;59900;50.788;12.904;2023-03-19T06:45:04;97338.31;;;9.33;66.84
72038;BME280;59900;50.788;12.904;2023-03-19T06:47:30;97341.34;;;9.37;67.05
72038;BME280;59900;50.788;12.904;2023-03-19T06:49:55;97345.38;;;9.39;67.15
72038;BME280;59900;50.788;12.904;2023-03-19T06:52:21;97348.22;;;9.38;66.74
72038;BME280;59900;50.788;12.904;2023-03-19T06:54:47;97348.03;;;9.46;66.51
72038;BME280;59900;50.788;12.904;2023-03-19T06:57:12;97356.78;;;9.53;66.52
72038;BME280;59900;50.788;12.904;2023-03-19T06:59:37;97351.56;;;9.60;66.62
72038;BME280;59900;50.788;12.904;2023-03-19T07:02:02;97352.78;;;9.64;66.40
72038;BME280;59900;50.788;12.904;2023-03-19T07:04:28;97359.44;;;9.66;66.13
72038;BME280;59900;50.788;12.904;2023-03-19T07:06:54;97353.63;;;9.71;65.98
72038;BME280;59900;50.788;12.904;2023-03-19T07:09:19;97354.66;;;9.76;66.10
72038;BME280;59900;50.788;12.904;2023-03-19T07:11:44;97354.88;;;9.81;66.13
72038;BME280;59900;50.788;12.904;2023-03-19T07:14:10;97359.97;;;9.89;66.10
72038;BME280;59900;50.788;12.904;2023-03-19T07:16:35;97352.94;;;9.96;66.39
72038;BME280;59900;50.788;12.904;2023-03-19T07:19:00;97361.44;;;10.05;66.35
72038;BME280;59900;50.788;12.904;2023-03-19T07:21:26;97354.59;;;10.10;66.45
72038;BME280;59900;50.788;12.904;2023-03-19T07:23:51;97358.50;;;10.15;66.31
72038;BME280;59900;50.788;12.904;2023-03-19T07:26:17;97361.16;;;10.21;65.94
72038;BME280;59900;50.788;12.904;2023-03-19T07:28:42;97366.56;;;10.20;65.47
72038;BME280;59900;50.788;12.904;2023-03-19T07:31:08;97364.38;;;10.23;65.65
72038;BME280;59900;50.788;12.904;2023-03-19T07:33:33;97366.41;;;10.34;66.14
72038;BME280;59900;50.788;12.904;2023-03-19T07:35:59;97365.84;;;10.39;65.89
72038;BME280;59900;50.788;12.904;2023-03-19T07:38:24;97364.22;;;10.44;66.10
72038;BME280;59900;50.788;12.904;2023-03-19T07:40:50;97365.25;;;10.50;66.12
72038;BME280;59900;50.788;12.904;2023-03-19T07:43:15;97366.06;;;10.50;65.86
72038;BME280;59900;50.788;12.904;2023-03-19T07:45:40;97377.59;;;10.56;65.63
72038;BME280;59900;50.788;12.904;2023-03-19T07:48:06;97366.69;;;10.59;65.33
72038;BME280;59900;50.788;12.904;2023-03-19T07:50:31;97372.16;;;10.71;65.11
72038;BME280;59900;50.788;12.904;2023-03-19T07:52:57;97376.59;;;10.83;64.54
72038;BME280;59900;50.788;12.904;2023-03-19T07:55:22;97376.84;;;10.95;64.41
72038;BME280;59900;50.788;12.904;2023-03-19T07:57:47;97377.03;;;11.00;63.64
72038;BME280;59900;50.788;12.904;2023-03-19T08:00:14;97381.91;;;11.09;63.49
72038;BME280;59900;50.788;12.904;2023-03-19T08:02:39;97387.94;;;11.16;63.05
72038;BME280;59900;50.788;12.904;2023-03-19T08:05:07;97387.13;;;11.29;63.11
72038;BME280;59900;50.788;12.904;2023-03-19T08:07:32;97387.91;;;11.36;62.99
72038;BME280;59900;50.788;12.904;2023-03-19T08:09:57;97384.28;;;11.44;62.68
72038;BME280;59900;50.788;12.904;2023-03-19T08:12:23;97382.44;;;11.51;62.61
72038;BME280;59900;50.788;12.904;2023-03-19T08:14:49;97383.44;;;11.63;62.19
72038;BME280;59900;50.788;12.904;2023-03-19T08:17:14;97377.78;;;11.72;61.85
72038;BME280;59900;50.788;12.904;2023-03-19T08:19:40;97384.63;;;11.80;60.84
72038;BME280;59900;50.788;12.904;2023-03-19T08:22:05;97384.03;;;11.85;60.46
72038;BME280;59900;50.788;12.904;2023-03-19T08:24:30;97390.28;;;11.90;60.66
72038;BME280;59900;50.788;12.904;2023-03-19T08:26:55;97387.03;;;11.95;60.25
72038;BME280;59900;50.788;12.904;2023-03-19T08:29:21;97390.25;;;12.03;59.90
72038;BME280;59900;50.788;12.904;2023-03-19T08:31:46;97384.16;;;12.09;59.87
72038;BME280;59900;50.788;12.904;2023-03-19T08:34:11;97380.06;;;12.13;59.95
72038;BME280;59900;50.788;12.904;2023-03-19T08:36:36;97386.94;;;12.21;59.94
72038;BME280;59900;50.788;12.904;2023-03-19T08:39:02;97389.75;;;12.26;59.70
72038;BME280;59900;50.788;12.904;2023-03-19T08:41:28;97390.56;;;12.26;59.59
72038;BME280;59900;50.788;12.904;2023-03-19T08:43:53;97388.50;;;12.28;58.89
72038;BME280;59900;50.788;12.904;2023-03-19T08:46:18;97391.72;;;12.37;59.01
72038;BME280;59900;50.788;12.904;2023-03-19T08:48:43;97384.78;;;12.43;59.01
72038;BME280;59900;50.788;12.904;2023-03-19T08:51:09;97388.00;;;12.45;59.29
72038;BME280;59900;50.788;12.904;2023-03-19T08:53:35;97385.56;;;12.50;59.48
72038;BME280;59900;50.788;12.904;2023-03-19T08:56:02;97381.03;;;12.57;59.22
72038;BME280;59900;50.788;12.904;2023-03-19T08:58:29;97387.50;;;12.67;59.17
72038;BME280;59900;50.788;12.904;2023-03-19T09:01:06;97380.13;;;12.76;58.52
72038;BME280;59900;50.788;12.904;2023-03-19T09:03:32;97384.13;;;12.85;58.29
72038;BME280;59900;50.788;12.904;2023-03-19T09:06:00;97394.63;;;12.91;57.66
72038;BME280;59900;50.788;12.904;2023-03-19T09:08:26;97383.44;;;12.96;57.27
72038;BME280;59900;50.788;12.904;2023-03-19T09:10:53;97380.31;;;13.06;56.12
72038;BME280;59900;50.788;12.904;2023-03-19T09:13:18;97381.53;;;13.10;55.27
72038;BME280;59900;50.788;12.904;2023-03-19T09:15:44;97391.22;;;13.16;55.30
72038;BME280;59900;50.788;12.904;2023-03-19T09:18:09;97395.25;;;13.18;54.92
72038;BME280;59900;50.788;12.904;2023-03-19T09:20:35;97395.88;;;13.20;54.96
72038;BME280;59900;50.788;12.904;2023-03-19T09:23:00;97392.78;;;13.23;54.63
72038;BME280;59900;50.788;12.904;2023-03-19T09:25:25;97391.94;;;13.29;54.70
72038;BME280;59900;50.788;12.904;2023-03-19T09:27:51;97394.34;;;13.31;54.48
72038;BME280;59900;50.788;12.904;2023-03-19T09:30:16;97397.50;;;13.39;54.25
72038;BME280;59900;50.788;12.904;2023-03-19T09:32:41;97391.81;;;13.42;54.47
72038;BME280;59900;50.788;12.904;2023-03-19T09:35:07;97394.81;;;13.46;54.14
72038;BME280;59900;50.788;12.904;2023-03-19T09:37:32;97388.25;;;13.55;54.21
72038;BME280;59900;50.788;12.904;2023-03-19T09:39:57;97394.69;;;13.59;54.23
72038;BME280;59900;50.788;12.904;2023-03-19T09:45:26;97386.13;;;13.64;53.79
72038;BME280;59900;50.788;12.904;2023-03-19T09:47:56;97395.56;;;13.71;54.06
72038;BME280;59900;50.788;12.904;2023-03-19T09:50:24;97400.59;;;13.79;54.06
72038;BME280;59900;50.788;12.904;2023-03-19T09:53:23;97399.19;;;13.95;54.59
72038;BME280;59900;50.788;12.904;2023-03-19T09:55:54;97395.81;;;14.06;53.68
72038;BME280;59900;50.788;12.904;2023-03-19T09:58:27;97393.47;;;14.16;53.12
72038;BME280;59900;50.788;12.904;2023-03-19T10:00:55;97396.84;;;14.23;53.36
72038;BME280;59900;50.788;12.904;2023-03-19T10:03:38;97406.28;;;14.31;52.85
72038;BME280;59900;50.788;12.904;2023-03-19T10:06:28;97393.03;;;14.37;53.45
72038;BME280;59900;50.788;12.904;2023-03-19T10:09:25;97391.41;;;14.36;53.15
72038;BME280;59900;50.788;12.904;2023-03-19T10:12:07;97403.59;;;14.37;53.90
72038;BME280;59900;50.788;12.904;2023-03-19T10:14:47;97400.16;;;14.37;53.73
72038;BME280;59900;50.788;12.904;2023-03-19T10:17:18;97395.66;;;14.37;53.40
72038;BME280;59900;50.788;12.904;2023-03-19T10:19:50;97397.78;;;14.47;53.80
72038;BME280;59900;50.788;12.904;2023-03-19T10:22:32;97398.56;;;14.47;51.97
72038;BME280;59900;50.788;12.904;2023-03-19T10:25:01;97393.72;;;14.44;52.51
72038;BME280;59900;50.788;12.904;2023-03-19T10:27:27;97390.63;;;14.47;51.68
72038;BME280;59900;50.788;12.904;2023-03-19T10:29:54;97390.81;;;14.52;52.35
72038;BME280;59900;50.788;12.904;2023-03-19T10:32:41;97394.81;;;14.55;52.07
72038;BME280;59900;50.788;12.904;2023-03-19T10:35:20;97397.69;;;14.53;52.23
72038;BME280;59900;50.788;12.904;2023-03-19T10:37:48;97386.66;;;14.56;52.56
72038;BME280;59900;50.788;12.904;2023-03-19T10:40:33;97396.78;;;14.59;53.12
72038;BME280;59900;50.788;12.904;2023-03-19T10:43:19;97395.06;;;14.65;53.00
72038;BME280;59900;50.788;12.904;2023-03-19T10:45:46;97392.22;;;14.67;53.35
72038;BME280;59900;50.788;12.904;2023-03-19T10:48:15;97390.06;;;14.75;53.47
72038;BME280;59900;50.788;12.904;2023-03-19T10:50:49;97383.75;;;14.76;53.15
72038;BME280;59900;50.788;12.904;2023-03-19T10:53:22;97384.78;;;14.75;53.16
72038;BME280;59900;50.788;12.904;2023-03-19T10:55:58;97387.41;;;14.75;53.85
72038;BME280;59900;50.788;12.904;2023-03-19T10:58:26;97396.28;;;14.81;53.82
72038;BME280;59900;50.788;12.904;2023-03-19T11:01:10;97387.78;;;14.79;52.84
72038;BME280;59900;50.788;12.904;2023-03-19T11:09:00;97390.69;;;15.00;53.39
72038;BME280;59900;50.788;12.904;2023-03-19T11:11:46;97391.41;;;15.07;52.86
72038;BME280;59900;50.788;12.904;2023-03-19T11:14:35;97393.97;;;15.14;52.66
72038;BME280;59900;50.788;12.904;2023-03-19T11:17:20;97398.78;;;15.05;52.52
72038;BME280;59900;50.788;12.904;2023-03-19T11:19:57;97389.22;;;15.04;52.76
72038;BME280;59900;50.788;12.904;2023-03-19T11:22:28;97393.34;;;15.12;53.39
72038;BME280;59900;50.788;12.904;2023-03-19T11:24:59;97388.97;;;15.06;52.82
72038;BME280;59900;50.788;12.904;2023-03-19T11:27:33;97392.44;;;15.06;53.09
72038;BME280;59900;50.788;12.904;2023-03-19T11:29:59;97392.34;;;15.13;52.52
72038;BME280;59900;50.788;12.904;2023-03-19T11:35:29;97391.75;;;15.11;51.90
72038;BME280;59900;50.788;12.904;2023-03-19T11:37:58;97392.25;;;15.20;52.57
72038;BME280;59900;50.788;12.904;2023-03-19T11:41:04;97392.91;;;15.15;52.80
72038;BME280;59900;50.788;12.904;2023-03-19T11:43:43;97388.69;;;15.26;52.88
72038;BME280;59900;50.788;12.904;2023-03-19T11:54:36;97405.84;;;15.46;52.24
72038;BME280;59900;50.788;12.904;2023-03-19T11:57:32;97397.19;;;15.39;51.88
72038;BME280;59900;50.788;12.904;2023-03-19T12:00:10;97397.31;;;15.44;51.65
72038;BME280;59900;50.788;12.904;2023-03-19T12:05:59;97386.63;;;15.51;52.23
72038;BME280;59900;50.788;12.904;2023-03-19T12:08:55;97392.63;;;15.58;52.00
72038;BME280;59900;50.788;12.904;2023-03-19T12:11:28;97394.38;;;15.64;51.91
72038;BME280;59900;50.788;12.904;2023-03-19T12:14:08;97390.66;;;15.77;52.27
72038;BME280;59900;50.788;12.904;2023-03-19T12:16:46;97395.38;;;15.86;52.17
72038;BME280;59900;50.788;12.904;2023-03-19T12:19:39;97385.69;;;15.92;52.11
72038;BME280;59900;50.788;12.904;2023-03-19T12:22:32;97390.75;;;15.93;52.38
72038;BME280;59900;50.788;12.904;2023-03-19T12:25:20;97385.69;;;15.80;51.97
72038;BME280;59900;50.788;12.904;2023-03-19T12:27:54;97391.34;;;15.84;52.54
72038;BME280;59900;50.788;12.904;2023-03-19T12:30:48;97403.78;;;15.72;52.75
72038;BME280;59900;50.788;12.904;2023-03-19T12:33:41;97387.44;;;15.51;53.65
72038;BME280;59900;50.788;12.904;2023-03-19T12:36:12;97396.28;;;15.45;54.39
72038;BME280;59900;50.788;12.904;2023-03-19T12:38:50;97405.13;;;15.39;54.82
72038;BME280;59900;50.788;12.904;2023-03-19T12:41:22;97408.69;;;15.33;55.19
72038;BME280;59900;50.788;12.904;2023-03-19T12:43:55;97403.50;;;15.15;55.46
72038;BME280;59900;50.788;12.904;2023-03-19T12:46:27;97398.56;;;15.19;55.64
72038;BME280;59900;50.788;12.904;2023-03-19T12:49:07;97399.09;;;15.09;56.58
72038;BME280;59900;50.788;12.904;2023-03-19T12:51:41;97405.56;;;15.13;56.56
72038;BME280;59900;50.788;12.904;2023-03-19T12:54:13;97414.53;;;15.12;55.89
72038;BME280;59900;50.788;12.904;2023-03-19T12:56:51;97394.72;;;15.03;56.24
72038;BME280;59900;50.788;12.904;2023-03-19T12:59:52;97403.59;;;14.97;55.97
72038;BME280;59900;50.788;12.904;2023-03-19T13:02:41;97397.59;;;14.90;56.84
72038;BME280;59900;50.788;12.904;2023-03-19T13:05:16;97403.56;;;14.85;56.81
72038;BME280;59900;50.788;12.904;2023-03-19T13:07:57;97408.16;;;14.90;57.45
72038;BME280;59900;50.788;12.904;2023-03-19T13:10:24;97406.78;;;14.87;57.38
72038;BME280;59900;50.788;12.904;2023-03-19T13:12:52;97406.41;;;14.84;57.52
72038;BME280;59900;50.788;12.904;2023-03-19T13:15:35;97404.19;;;14.69;58.66
72038;BME280;59900;50.788;12.904;2023-03-19T13:18:40;97412.38;;;14.68;59.00
72038;BME280;59900;50.788;12.904;2023-03-19T13:21:25;97414.16;;;14.55;59.17
72038;BME280;59900;50.788;12.904;2023-03-19T13:24:25;97416.75;;;14.44;60.73
72038;BME280;59900;50.788;12.904;2023-03-19T13:26:53;97426.28;;;14.45;60.57